Time;durP1;ratioP1;P1;durP2;ratioP2;P2;SDS_P1;SDS_P2;PMS_P1;PMS_P2;Temp;Humidity;BMP_temperature;BMP_pressure;BME280_temperature;BME280_humidity;BME280_pressure;Samples;Min_cycle;Max_cycle;Signal;HPM_P1;HPM_P2
2022/11/10 00:00:22;;;;;;;22.75;3.95;;;;;;;;;;5082376;28;20539;-77
2022/11/10 00:02:48;;;;;;;17.05;3.88;;;;;;;;;;5080087;28;20031;-78
2022/11/10 00:05:15;;;;;;;15.57;4.28;;;;;;;;;;5082418;28;20076;-76
2022/11/10 00:07:41;;;;;;;21.83;5.43;;;;;;;;;;5084957;28;20024;-77
2022/11/10 00:10:08;;;;;;;26.63;4.38;;;;;;;;;;5081170;28;20040;-78
2022/11/10 00:12:34;;;;;;;17.35;4.63;;;;;;;;;;5079372;28;20077;-77
2022/11/10 00:17:45;;;;;;;20.88;4.75;;;;;;;;;;5084827;28;20036;-77
2022/11/10 00:20:11;;;;;;;22.55;4.80;;;;;;;;;;5082221;28;20029;-77
2022/11/10 00:22:38;;;;;;;20.75;4.50;;;;;;;;;;5078787;28;20028;-77
2022/11/10 00:25:04;;;;;;;25.70;4.60;;;;;;;;;;5078692;28;20008;-78
2022/11/10 00:27:31;;;;;;;18.40;4.82;;;;;;;;;;5080125;28;20115;-78
2022/11/10 00:29:57;;;;;;;19.52;5.78;;;;;;;;;;5080904;28;20478;-78
2022/11/10 00:32:23;;;;;;;17.35;4.85;;;;;;;;;;5082299;28;20059;-80
2022/11/10 00:34:49;;;;;;;22.63;5.68;;;;;;;;;;5076856;28;20021;-77
2022/11/10 00:37:15;;;;;;;18.63;5.47;;;;;;;;;;5081580;28;20021;-78
2022/11/10 00:39:41;;;;;;;26.58;5.80;;;;;;;;;;5084130;28;20025;-77
2022/11/10 00:42:07;;;;;;;21.58;6.10;;;;;;;;;;5077852;28;20020;-77
2022/11/10 00:44:33;;;;;;;26.02;7.70;;;;;;;;;;5074856;28;20021;-78
2022/11/10 00:46:59;;;;;;;21.17;5.80;;;;;;;;;;5074398;28;20020;-78
2022/11/10 00:49:26;;;;;;;20.73;6.00;;;;;;;;;;5073232;28;20557;-77
2022/11/10 00:51:52;;;;;;;21.63;6.47;;;;;;;;;;5074630;28;20070;-78
2022/11/10 00:54:18;;;;;;;20.27;6.38;;;;;;;;;;5074287;28;20032;-76
2022/11/10 00:56:44;;;;;;;27.23;6.50;;;;;;;;;;5074983;28;20491;-77
2022/11/10 00:59:10;;;;;;;23.25;7.20;;;;;;;;;;5074654;28;20124;-78
2022/11/10 01:01:36;;;;;;;26.15;6.95;;;;;;;;;;5073855;28;20053;-77
2022/11/10 01:04:02;;;;;;;24.80;6.95;;;;;;;;;;5074820;28;20029;-77
2022/11/10 01:06:28;;;;;;;25.05;6.05;;;;;;;;;;5075970;28;20075;-76
2022/11/10 01:08:54;;;;;;;23.98;6.18;;;;;;;;;;5084776;28;20025;-77
2022/11/10 01:11:21;;;;;;;24.83;6.80;;;;;;;;;;5089115;28;20029;-77
2022/11/10 01:13:49;;;;;;;28.23;6.93;;;;;;;;;;5087812;28;20029;-78
2022/11/10 01:16:19;;;;;;;23.77;6.53;;;;;;;;;;5075544;28;20080;-77
2022/11/10 01:18:49;;;;;;;19.98;7.07;;;;;;;;;;5082294;28;20024;-79
2022/11/10 01:21:15;;;;;;;20.42;6.40;;;;;;;;;;5088785;28;20123;-77
2022/11/10 01:23:41;;;;;;;20.58;6.00;;;;;;;;;;5083132;28;20036;-77
2022/11/10 01:26:07;;;;;;;20.25;5.80;;;;;;;;;;5081655;28;20060;-77
2022/11/10 01:28:34;;;;;;;25.25;6.43;;;;;;;;;;5083155;28;20477;-77
2022/11/10 01:31:01;;;;;;;22.50;6.05;;;;;;;;;;5084439;28;20077;-76
2022/11/10 01:33:27;;;;;;;19.88;6.10;;;;;;;;;;5089956;28;20039;-76
2022/11/10 01:35:53;;;;;;;32.65;6.15;;;;;;;;;;5095724;28;20021;-76
2022/11/10 01:38:19;;;;;;;16.70;6.20;;;;;;;;;;5096614;28;20029;-78
2022/11/10 01:40:45;;;;;;;29.35;6.00;;;;;;;;;;5081452;28;20222;-78
2022/11/10 01:43:12;;;;;;;16.95;5.47;;;;;;;;;;5080285;28;20063;-77
2022/11/10 01:45:37;;;;;;;24.08;6.47;;;;;;;;;;5079052;28;20112;-78
2022/11/10 01:48:05;;;;;;;22.65;5.60;;;;;;;;;;5078188;28;20071;-78
2022/11/10 01:50:34;;;;;;;27.02;6.15;;;;;;;;;;5093310;28;20043;-77
2022/11/10 01:53:02;;;;;;;23.42;6.05;;;;;;;;;;5100068;28;20028;-75
2022/11/10 01:55:28;;;;;;;20.90;5.53;;;;;;;;;;5099894;28;20033;-76
2022/11/10 01:57:55;;;;;;;20.23;5.50;;;;;;;;;;5100017;28;20035;-75
2022/11/10 02:00:21;;;;;;;18.65;4.95;;;;;;;;;;5099068;28;20137;-76
2022/11/10 02:02:50;;;;;;;23.92;5.78;;;;;;;;;;5087973;28;20025;-76
2022/11/10 02:05:16;;;;;;;19.27;5.18;;;;;;;;;;5079884;28;20025;-77
2022/11/10 02:07:42;;;;;;;28.15;6.88;;;;;;;;;;5079192;28;20025;-78
2022/11/10 02:10:15;;;;;;;23.65;5.38;;;;;;;;;;5077389;28;20024;-78
2022/11/10 02:12:42;;;;;;;21.30;5.88;;;;;;;;;;5078591;28;20036;-77
2022/11/10 02:15:10;;;;;;;15.05;5.28;;;;;;;;;;5079282;28;20342;-77
2022/11/10 02:17:36;;;;;;;22.77;5.50;;;;;;;;;;5077372;28;20013;-76
2022/11/10 02:20:03;;;;;;;21.40;5.25;;;;;;;;;;5081943;28;20024;-77
2022/11/10 02:22:33;;;;;;;22.48;5.50;;;;;;;;;;5082643;28;20042;-77
2022/11/10 02:24:59;;;;;;;17.98;5.15;;;;;;;;;;5077143;28;20024;-77
2022/11/10 02:27:25;;;;;;;18.45;4.78;;;;;;;;;;5079408;28;20025;-77
2022/11/10 02:29:51;;;;;;;19.98;4.68;;;;;;;;;;5078399;28;20177;-77
2022/11/10 02:32:17;;;;;;;25.75;5.10;;;;;;;;;;5078147;28;20341;-78
2022/11/10 02:34:43;;;;;;;20.45;5.13;;;;;;;;;;5079664;28;20491;-77
2022/11/10 02:37:09;;;;;;;25.58;5.95;;;;;;;;;;5077741;28;20064;-77
2022/11/10 02:39:35;;;;;;;23.17;6.75;;;;;;;;;;5078818;28;20096;-76
2022/11/10 02:42:02;;;;;;;19.02;5.25;;;;;;;;;;5078188;28;20157;-77
2022/11/10 02:44:28;;;;;;;26.15;6.43;;;;;;;;;;5078292;28;20515;-76
2022/11/10 02:46:54;;;;;;;26.58;6.00;;;;;;;;;;5078244;28;20493;-79
2022/11/10 02:49:20;;;;;;;23.88;5.13;;;;;;;;;;5079214;28;20036;-76
2022/11/10 02:51:46;;;;;;;23.45;4.70;;;;;;;;;;5076041;28;20029;-77
2022/11/10 02:54:12;;;;;;;14.65;4.97;;;;;;;;;;5076904;28;20033;-77
2022/11/10 02:56:38;;;;;;;16.48;5.10;;;;;;;;;;5077059;28;20415;-77
2022/11/10 02:59:04;;;;;;;22.27;5.78;;;;;;;;;;5077610;28;20035;-77
2022/11/10 03:01:29;;;;;;;18.25;5.05;;;;;;;;;;5076016;28;20060;-77
2022/11/10 03:03:55;;;;;;;15.43;5.22;;;;;;;;;;5076135;28;20093;-78
2022/11/10 03:06:21;;;;;;;18.55;5.97;;;;;;;;;;5076953;28;20037;-76
2022/11/10 03:08:47;;;;;;;20.42;6.18;;;;;;;;;;5081116;28;20029;-77
2022/11/10 03:11:13;;;;;;;25.88;6.70;;;;;;;;;;5078609;28;20029;-78
2022/11/10 03:13:39;;;;;;;19.50;6.90;;;;;;;;;;5078409;28;20066;-77
2022/11/10 03:16:05;;;;;;;32.10;7.38;;;;;;;;;;5078338;28;20028;-77
2022/11/10 03:18:31;;;;;;;23.55;7.20;;;;;;;;;;5087901;28;20033;-75
2022/11/10 03:20:57;;;;;;;29.17;7.13;;;;;;;;;;5093825;28;20013;-75
2022/11/10 03:23:23;;;;;;;26.85;7.18;;;;;;;;;;5096955;28;20051;-76
2022/11/10 03:25:49;;;;;;;35.97;9.43;;;;;;;;;;5097938;28;20025;-75
2022/11/10 03:28:15;;;;;;;29.08;7.95;;;;;;;;;;5098332;28;20033;-75
2022/11/10 03:30:41;;;;;;;31.20;8.32;;;;;;;;;;5098329;28;20025;-77
2022/11/10 03:33:08;;;;;;;24.92;8.63;;;;;;;;;;5097668;28;20024;-76
2022/11/10 03:35:34;;;;;;;31.17;8.20;;;;;;;;;;5097203;28;20072;-77
2022/11/10 03:38:00;;;;;;;21.15;8.65;;;;;;;;;;5097356;28;20032;-76
2022/11/10 03:40:26;;;;;;;28.73;8.95;;;;;;;;;;5097855;28;20020;-76
2022/11/10 03:42:52;;;;;;;30.95;8.77;;;;;;;;;;5098000;28;20020;-76
2022/11/10 03:45:18;;;;;;;34.10;10.18;;;;;;;;;;5098028;28;20008;-75
2022/11/10 03:47:45;;;;;;;27.92;8.70;;;;;;;;;;5097892;28;20020;-75
2022/11/10 03:50:11;;;;;;;31.65;9.32;;;;;;;;;;5093041;28;20089;-76
2022/11/10 03:52:41;;;;;;;30.23;9.98;;;;;;;;;;5076311;28;20040;-77
2022/11/10 03:55:07;;;;;;;33.58;10.32;;;;;;;;;;5076789;28;20040;-77
2022/11/10 03:57:33;;;;;;;38.90;11.65;;;;;;;;;;5079867;28;20571;-77
2022/11/10 03:59:59;;;;;;;28.45;9.88;;;;;;;;;;5085261;28;20028;-77
2022/11/10 04:02:25;;;;;;;35.30;10.90;;;;;;;;;;5084745;28;20048;-77
2022/11/10 04:10:20;;;;;;;35.90;11.88;;;;;;;;;;5084023;28;20035;-77
2022/11/10 04:15:43;;;;;;;28.23;11.60;;;;;;;;;;5084405;28;20566;-77
2022/11/10 04:18:25;;;;;;;35.60;12.85;;;;;;;;;;5085490;28;20032;-77
2022/11/10 04:20:58;;;;;;;32.83;12.55;;;;;;;;;;5082713;28;20029;-77
2022/11/10 04:23:25;;;;;;;43.38;15.93;;;;;;;;;;5079419;28;20074;-79
2022/11/10 04:28:36;;;;;;;32.08;14.88;;;;;;;;;;5077870;28;20516;-77
2022/11/10 04:31:02;;;;;;;33.70;13.70;;;;;;;;;;5084945;28;20326;-77
2022/11/10 04:33:28;;;;;;;36.22;14.75;;;;;;;;;;5087104;28;20025;-77
2022/11/10 04:35:54;;;;;;;39.30;15.50;;;;;;;;;;5079083;28;20036;-77
2022/11/10 04:38:19;;;;;;;40.22;15.27;;;;;;;;;;5075790;28;20028;-79
2022/11/10 04:40:45;;;;;;;48.20;17.92;;;;;;;;;;5075257;28;20028;-77
2022/11/10 04:43:11;;;;;;;39.17;16.50;;;;;;;;;;5077023;28;20033;-77
2022/11/10 04:45:37;;;;;;;46.50;16.98;;;;;;;;;;5080077;28;20024;-77
2022/11/10 04:48:03;;;;;;;38.08;16.67;;;;;;;;;;5076682;28;20050;-76
2022/11/10 04:50:29;;;;;;;41.58;16.63;;;;;;;;;;5076210;28;20028;-75
2022/11/10 04:52:55;;;;;;;46.67;16.48;;;;;;;;;;5075862;28;20048;-77
2022/11/10 04:55:21;;;;;;;38.25;16.65;;;;;;;;;;5078318;28;20510;-77
2022/11/10 04:57:47;;;;;;;49.60;16.73;;;;;;;;;;5076535;28;20016;-77
2022/11/10 05:00:13;;;;;;;40.67;16.52;;;;;;;;;;5079227;28;20033;-77
2022/11/10 05:02:39;;;;;;;36.03;16.13;;;;;;;;;;5083199;28;20111;-76
2022/11/10 05:05:05;;;;;;;47.08;16.45;;;;;;;;;;5077527;28;20075;-77
2022/11/10 05:07:31;;;;;;;53.25;19.20;;;;;;;;;;5074658;28;20036;-77
2022/11/10 05:09:57;;;;;;;37.97;17.27;;;;;;;;;;5075817;28;20055;-77
2022/11/10 05:12:23;;;;;;;46.50;19.25;;;;;;;;;;5078063;28;20118;-76
2022/11/10 05:14:49;;;;;;;41.95;18.13;;;;;;;;;;5096204;28;20012;-77
2022/11/10 05:17:15;;;;;;;48.40;17.88;;;;;;;;;;5096216;28;20044;-77
2022/11/10 05:19:41;;;;;;;50.67;19.13;;;;;;;;;;5086216;28;20025;-77
2022/11/10 05:22:07;;;;;;;37.88;18.77;;;;;;;;;;5076953;28;20217;-76
2022/11/10 05:24:33;;;;;;;51.72;20.02;;;;;;;;;;5100681;28;20021;-76
2022/11/10 05:26:59;;;;;;;46.63;21.30;;;;;;;;;;5088444;28;20111;-78
2022/11/10 05:29:25;;;;;;;48.67;19.90;;;;;;;;;;5076379;28;20075;-76
2022/11/10 05:31:51;;;;;;;49.20;20.30;;;;;;;;;;5077170;28;20025;-76
2022/11/10 05:34:17;;;;;;;56.22;20.10;;;;;;;;;;5076680;28;20529;-76
2022/11/10 05:36:43;;;;;;;56.08;20.92;;;;;;;;;;5077087;28;20024;-77
2022/11/10 05:39:09;;;;;;;47.28;20.67;;;;;;;;;;5077046;28;20099;-77
2022/11/10 05:41:35;;;;;;;49.13;20.23;;;;;;;;;;5076025;28;20039;-75
2022/11/10 05:44:00;;;;;;;47.17;18.73;;;;;;;;;;5075049;28;20034;-75
2022/11/10 05:46:26;;;;;;;48.30;19.42;;;;;;;;;;5077287;28;20053;-77
2022/11/10 05:48:52;;;;;;;51.58;19.45;;;;;;;;;;5075750;28;20025;-77
2022/11/10 05:51:19;;;;;;;56.63;19.77;;;;;;;;;;5078054;28;20028;-77
2022/11/10 05:53:45;;;;;;;52.40;20.08;;;;;;;;;;5076094;28;20089;-79
2022/11/10 05:56:11;;;;;;;46.25;19.42;;;;;;;;;;5076590;28;20045;-78
2022/11/10 05:58:36;;;;;;;45.35;18.85;;;;;;;;;;5077349;28;20096;-78
2022/11/10 06:01:02;;;;;;;47.08;19.30;;;;;;;;;;5078461;28;20107;-78
2022/11/10 06:03:28;;;;;;;53.60;18.75;;;;;;;;;;5079265;28;20020;-77
2022/11/10 06:05:55;;;;;;;43.75;17.75;;;;;;;;;;5078103;28;20031;-77
2022/11/10 06:08:21;;;;;;;42.92;18.70;;;;;;;;;;5079180;28;20444;-78
2022/11/10 06:10:47;;;;;;;43.80;17.80;;;;;;;;;;5077748;28;20024;-77
2022/11/10 06:13:13;;;;;;;46.33;17.85;;;;;;;;;;5077954;28;20413;-77
2022/11/10 06:15:39;;;;;;;41.83;18.38;;;;;;;;;;5077392;28;20108;-78
2022/11/10 06:18:05;;;;;;;42.88;17.20;;;;;;;;;;5077594;28;20488;-77
2022/11/10 06:20:32;;;;;;;45.45;16.55;;;;;;;;;;5078422;28;20562;-80
2022/11/10 06:23:01;;;;;;;51.65;17.08;;;;;;;;;;5079570;28;20056;-79
2022/11/10 06:25:27;;;;;;;48.25;16.77;;;;;;;;;;5075869;28;20029;-78
2022/11/10 06:27:53;;;;;;;40.80;16.50;;;;;;;;;;5077440;28;20180;-77
2022/11/10 06:30:19;;;;;;;41.03;16.33;;;;;;;;;;5077005;28;20091;-77
2022/11/10 06:32:45;;;;;;;48.10;16.35;;;;;;;;;;5075371;28;20021;-77
2022/11/10 06:35:11;;;;;;;38.92;15.80;;;;;;;;;;5077264;28;20089;-77
2022/11/10 06:37:38;;;;;;;50.75;16.30;;;;;;;;;;5077568;28;20020;-77
2022/11/10 06:40:07;;;;;;;45.20;15.30;;;;;;;;;;5076536;28;20473;-76
2022/11/10 06:42:34;;;;;;;41.75;15.52;;;;;;;;;;5076996;28;20028;-78
2022/11/10 06:45:00;;;;;;;49.05;15.95;;;;;;;;;;5077427;28;20048;-77
2022/11/10 06:47:26;;;;;;;50.28;16.90;;;;;;;;;;5079501;28;20029;-78
2022/11/10 06:49:52;;;;;;;53.60;15.90;;;;;;;;;;5077430;28;20020;-77
2022/11/10 06:52:18;;;;;;;48.22;15.70;;;;;;;;;;5080012;28;20027;-77
2022/11/10 06:54:44;;;;;;;39.95;14.27;;;;;;;;;;5078703;28;20099;-76
2022/11/10 06:57:10;;;;;;;49.03;15.25;;;;;;;;;;5076714;28;20024;-76
2022/11/10 06:59:36;;;;;;;45.70;15.55;;;;;;;;;;5077673;28;20040;-78
2022/11/10 07:02:02;;;;;;;43.85;15.23;;;;;;;;;;5081536;28;20067;-77
2022/11/10 07:04:28;;;;;;;43.55;13.93;;;;;;;;;;5075466;28;20024;-77
2022/11/10 07:06:54;;;;;;;43.50;15.07;;;;;;;;;;5076488;28;20059;-77
2022/11/10 07:09:20;;;;;;;44.60;15.18;;;;;;;;;;5079489;28;20032;-78
2022/11/10 07:11:46;;;;;;;53.05;15.20;;;;;;;;;;5078572;28;20071;-77
2022/11/10 07:14:12;;;;;;;50.63;15.13;;;;;;;;;;5078576;28;20024;-77
2022/11/10 07:16:38;;;;;;;42.22;13.85;;;;;;;;;;5077903;28;20091;-79
2022/11/10 07:19:04;;;;;;;48.60;14.73;;;;;;;;;;5077989;28;20437;-77
2022/11/10 07:21:30;;;;;;;50.95;15.73;;;;;;;;;;5078412;28;20021;-79
2022/11/10 07:23:56;;;;;;;36.53;14.23;;;;;;;;;;5080849;28;20048;-77
2022/11/10 07:26:22;;;;;;;49.78;16.00;;;;;;;;;;5074658;28;20025;-76
2022/11/10 07:28:48;;;;;;;50.78;15.20;;;;;;;;;;5077447;28;20055;-77
2022/11/10 07:31:14;;;;;;;48.03;16.45;;;;;;;;;;5078578;28;20085;-77
2022/11/10 07:33:40;;;;;;;52.80;16.45;;;;;;;;;;5076759;28;20024;-76
2022/11/10 07:36:06;;;;;;;42.00;17.10;;;;;;;;;;5075340;28;20028;-77
2022/11/10 07:38:32;;;;;;;47.70;16.58;;;;;;;;;;5080062;28;20099;-76
2022/11/10 07:40:58;;;;;;;52.88;17.48;;;;;;;;;;5079166;28;20078;-77
2022/11/10 07:43:24;;;;;;;47.65;18.15;;;;;;;;;;5078683;28;20032;-77
2022/11/10 07:45:51;;;;;;;56.08;20.20;;;;;;;;;;5078930;28;20032;-76
2022/11/10 07:48:17;;;;;;;59.30;19.65;;;;;;;;;;5079946;28;20438;-75
2022/11/10 07:50:43;;;;;;;49.83;19.45;;;;;;;;;;5082992;28;20120;-77
2022/11/10 07:53:10;;;;;;;58.92;21.35;;;;;;;;;;5083753;28;20033;-77
2022/11/10 07:55:37;;;;;;;56.17;22.05;;;;;;;;;;5083482;28;20054;-77
2022/11/10 07:58:03;;;;;;;66.68;21.63;;;;;;;;;;5082143;28;20025;-78
2022/11/10 08:00:30;;;;;;;60.80;21.35;;;;;;;;;;5082252;28;20055;-77
2022/11/10 08:03:06;;;;;;;55.00;22.05;;;;;;;;;;5083373;28;20028;-77
2022/11/10 08:05:32;;;;;;;52.88;22.35;;;;;;;;;;5093802;28;20055;-77
2022/11/10 08:07:59;;;;;;;60.80;22.85;;;;;;;;;;5090712;28;20015;-78
2022/11/10 08:10:25;;;;;;;60.40;24.35;;;;;;;;;;5096519;28;20039;-77
2022/11/10 08:12:55;;;;;;;66.38;23.90;;;;;;;;;;5094084;28;20117;-77
2022/11/10 08:15:21;;;;;;;50.67;21.27;;;;;;;;;;5094004;28;20040;-76
2022/11/10 08:17:47;;;;;;;64.93;23.10;;;;;;;;;;5077347;28;20025;-77
2022/11/10 08:20:13;;;;;;;59.70;22.38;;;;;;;;;;5080694;28;20050;-78
2022/11/10 08:22:39;;;;;;;57.80;22.90;;;;;;;;;;5081641;28;20535;-78
2022/11/10 08:25:05;;;;;;;64.32;23.10;;;;;;;;;;5078118;28;20032;-76
2022/11/10 08:27:31;;;;;;;59.20;22.90;;;;;;;;;;5076305;28;20035;-76
2022/11/10 08:29:57;;;;;;;62.65;23.17;;;;;;;;;;5076003;28;20036;-76
2022/11/10 08:32:23;;;;;;;54.67;23.83;;;;;;;;;;5075347;28;20063;-77
2022/11/10 08:34:49;;;;;;;57.92;23.50;;;;;;;;;;5076537;28;20528;-77
2022/11/10 08:37:15;;;;;;;58.53;24.77;;;;;;;;;;5074820;28;20105;-76
2022/11/10 08:39:41;;;;;;;58.80;23.05;;;;;;;;;;5074966;28;20101;-76
2022/11/10 08:42:07;;;;;;;53.10;21.75;;;;;;;;;;5076025;28;20020;-76
2022/11/10 08:44:33;;;;;;;52.10;23.13;;;;;;;;;;5073435;28;20123;-79
2022/11/10 08:46:58;;;;;;;60.92;22.98;;;;;;;;;;5075505;28;20080;-76
2022/11/10 08:49:24;;;;;;;68.78;23.65;;;;;;;;;;5076916;28;20028;-77
2022/11/10 08:51:50;;;;;;;55.95;23.95;;;;;;;;;;5080173;28;20090;-78
2022/11/10 08:54:16;;;;;;;55.35;23.45;;;;;;;;;;5079664;28;20092;-77
2022/11/10 08:56:42;;;;;;;75.60;26.17;;;;;;;;;;5080205;28;20027;-76
2022/11/10 08:59:08;;;;;;;65.18;23.92;;;;;;;;;;5081027;28;20214;-77
2022/11/10 09:01:34;;;;;;;66.13;23.38;;;;;;;;;;5081304;28;20029;-76
2022/11/10 09:04:01;;;;;;;85.88;24.45;;;;;;;;;;5082331;28;20028;-77
2022/11/10 09:06:27;;;;;;;51.92;22.88;;;;;;;;;;5079333;28;20108;-79
2022/11/10 09:08:53;;;;;;;61.47;23.50;;;;;;;;;;5079951;28;20052;-78
2022/11/10 09:11:19;;;;;;;51.20;22.77;;;;;;;;;;5088791;28;20046;-77
2022/11/10 09:13:45;;;;;;;69.93;24.15;;;;;;;;;;5100059;28;20055;-79
2022/11/10 09:16:10;;;;;;;57.65;22.98;;;;;;;;;;5081862;28;20456;-76
2022/11/10 09:18:36;;;;;;;55.95;23.00;;;;;;;;;;5083490;28;20032;-76
2022/11/10 09:21:10;;;;;;;55.33;22.50;;;;;;;;;;5087974;28;20029;-76
2022/11/10 09:23:36;;;;;;;45.67;21.70;;;;;;;;;;5085684;28;20077;-75
2022/11/10 09:26:04;;;;;;;48.38;21.77;;;;;;;;;;5084250;28;20045;-78
2022/11/10 09:28:30;;;;;;;50.17;21.13;;;;;;;;;;5081505;28;20036;-76
2022/11/10 09:30:56;;;;;;;51.63;21.17;;;;;;;;;;5083178;28;20028;-77
2022/11/10 09:33:22;;;;;;;46.80;19.45;;;;;;;;;;5083655;28;20025;-76
2022/11/10 09:35:49;;;;;;;60.95;20.50;;;;;;;;;;5078491;28;20031;-79
2022/11/10 09:38:15;;;;;;;48.30;20.33;;;;;;;;;;5078920;28;20393;-78
2022/11/10 09:40:51;;;;;;;65.88;19.73;;;;;;;;;;5080788;28;20104;-78
2022/11/10 09:43:20;;;;;;;42.80;19.30;;;;;;;;;;5082304;28;20024;-76
2022/11/10 09:45:48;;;;;;;47.47;18.95;;;;;;;;;;5083258;28;20040;-77
2022/11/10 09:48:26;;;;;;;46.53;18.83;;;;;;;;;;5083221;28;20040;-77
2022/11/10 09:50:51;;;;;;;40.88;18.15;;;;;;;;;;5084872;28;20259;-78
2022/11/10 09:53:22;;;;;;;51.25;20.35;;;;;;;;;;5087506;28;20036;-77
2022/11/10 09:56:07;;;;;;;55.42;18.00;;;;;;;;;;5088996;28;20027;-79
2022/11/10 09:58:38;;;;;;;45.92;18.13;;;;;;;;;;5089514;28;20025;-78
2022/11/10 10:01:07;;;;;;;50.72;18.58;;;;;;;;;;5088471;28;20050;-78
2022/11/10 10:03:35;;;;;;;52.30;18.10;;;;;;;;;;5091085;28;20080;-79
2022/11/10 10:06:08;;;;;;;52.28;18.92;;;;;;;;;;5089802;28;20032;-78
2022/11/10 10:08:46;;;;;;;44.60;16.73;;;;;;;;;;5089257;28;20441;-77
2022/11/10 10:11:21;;;;;;;44.05;17.00;;;;;;;;;;5089604;28;20033;-78
2022/11/10 10:13:56;;;;;;;42.47;16.20;;;;;;;;;;5088694;28;20082;-78
2022/11/10 10:16:31;;;;;;;56.10;16.33;;;;;;;;;;5090934;28;20033;-78
2022/11/10 10:19:15;;;;;;;48.08;16.77;;;;;;;;;;5089365;28;20108;-77
2022/11/10 10:21:47;;;;;;;41.90;14.88;;;;;;;;;;5089869;28;20052;-77
2022/11/10 10:24:14;;;;;;;45.65;15.98;;;;;;;;;;5091695;28;20035;-78
2022/11/10 10:26:51;;;;;;;47.40;15.43;;;;;;;;;;5090903;28;20032;-77
2022/11/10 10:29:30;;;;;;;49.63;15.77;;;;;;;;;;5093377;28;20033;-77
2022/11/10 10:31:59;;;;;;;36.83;14.65;;;;;;;;;;5095506;28;20039;-78
2022/11/10 10:34:27;;;;;;;56.88;16.20;;;;;;;;;;5088541;28;20024;-77
2022/11/10 10:36:53;;;;;;;50.80;15.45;;;;;;;;;;5079516;28;20027;-77
2022/11/10 10:39:22;;;;;;;49.03;14.82;;;;;;;;;;5090880;28;20021;-78
2022/11/10 10:41:48;;;;;;;41.08;13.93;;;;;;;;;;5094563;28;20051;-78
2022/11/10 10:44:15;;;;;;;43.40;13.68;;;;;;;;;;5083724;28;20032;-76
2022/11/10 10:46:55;;;;;;;44.40;12.98;;;;;;;;;;5086632;28;20024;-77
2022/11/10 10:49:23;;;;;;;32.63;11.75;;;;;;;;;;5085208;28;20033;-77
2022/11/10 10:51:50;;;;;;;43.47;13.07;;;;;;;;;;5082885;28;20432;-78
2022/11/10 10:54:22;;;;;;;59.50;21.15;;;;;;;;;;5079032;28;20024;-78
2022/11/10 10:56:48;;;;;;;40.40;12.07;;;;;;;;;;5078856;28;20420;-79
2022/11/10 10:59:21;;;;;;;37.25;11.15;;;;;;;;;;5086419;28;20039;-78
2022/11/10 11:01:52;;;;;;;43.78;12.18;;;;;;;;;;5092731;28;20021;-77
2022/11/10 11:04:27;;;;;;;49.03;13.25;;;;;;;;;;5093734;28;20029;-79
2022/11/10 11:06:58;;;;;;;45.63;12.85;;;;;;;;;;5094454;28;20060;-79
2022/11/10 11:09:26;;;;;;;40.47;12.10;;;;;;;;;;5095880;28;20051;-78
2022/11/10 11:12:06;;;;;;;41.65;12.10;;;;;;;;;;5094820;28;20036;-77
2022/11/10 11:14:32;;;;;;;42.80;12.25;;;;;;;;;;5092217;28;20024;-77
2022/11/10 11:16:59;;;;;;;41.53;11.68;;;;;;;;;;5091063;28;20024;-78
2022/11/10 11:19:27;;;;;;;46.78;13.23;;;;;;;;;;5095756;28;20012;-77
2022/11/10 11:22:12;;;;;;;38.70;12.35;;;;;;;;;;5092371;28;20024;-76
2022/11/10 11:24:53;;;;;;;37.88;11.38;;;;;;;;;;5075269;28;20058;-76
2022/11/10 11:27:38;;;;;;;44.97;12.40;;;;;;;;;;5076116;28;20029;-78
2022/11/10 11:30:07;;;;;;;45.83;11.25;;;;;;;;;;5076802;28;20033;-77
2022/11/10 11:32:52;;;;;;;39.85;11.13;;;;;;;;;;5078588;28;20052;-77
2022/11/10 11:35:27;;;;;;;36.33;10.88;;;;;;;;;;5078959;28;20049;-78
2022/11/10 11:37:59;;;;;;;38.88;9.93;;;;;;;;;;5080655;28;20039;-78
2022/11/10 11:40:40;;;;;;;38.08;9.88;;;;;;;;;;5075864;28;20393;-77
2022/11/10 11:43:12;;;;;;;45.90;10.27;;;;;;;;;;5077946;28;20029;-78
2022/11/10 11:45:47;;;;;;;30.50;9.40;;;;;;;;;;5077236;28;20469;-78
2022/11/10 11:48:19;;;;;;;50.58;9.80;;;;;;;;;;5079959;28;20028;-77
2022/11/10 11:50:53;;;;;;;37.67;9.55;;;;;;;;;;5078440;28;20036;-77
2022/11/10 11:53:43;;;;;;;39.45;9.38;;;;;;;;;;5080479;28;20027;-78
2022/11/10 11:56:15;;;;;;;33.50;8.77;;;;;;;;;;5087983;28;20031;-77
2022/11/10 11:58:41;;;;;;;41.40;10.80;;;;;;;;;;5097125;28;20016;-78
2022/11/10 12:01:16;;;;;;;50.13;9.45;;;;;;;;;;5088905;28;20030;-77
2022/11/10 12:03:42;;;;;;;39.13;9.35;;;;;;;;;;5085599;28;20039;-77
2022/11/10 12:06:11;;;;;;;44.42;9.10;;;;;;;;;;5092336;28;20088;-77
2022/11/10 12:08:56;;;;;;;35.70;8.43;;;;;;;;;;5093978;28;20081;-78
2022/11/10 12:11:38;;;;;;;28.45;7.45;;;;;;;;;;5081035;28;20084;-79
2022/11/10 12:14:15;;;;;;;34.05;8.30;;;;;;;;;;5078352;28;20469;-76
2022/11/10 12:16:44;;;;;;;39.65;8.68;;;;;;;;;;5076850;28;20040;-77
2022/11/10 12:19:19;;;;;;;35.70;7.55;;;;;;;;;;5077506;28;20035;-79
2022/11/10 12:21:53;;;;;;;33.15;8.32;;;;;;;;;;5078737;28;20091;-78
2022/11/10 12:24:38;;;;;;;37.60;8.27;;;;;;;;;;5078599;28;20058;-78
2022/11/10 12:27:13;;;;;;;38.33;7.85;;;;;;;;;;5077723;28;20029;-79
2022/11/10 12:29:43;;;;;;;35.75;7.63;;;;;;;;;;5078274;28;20046;-77
2022/11/10 12:32:09;;;;;;;31.73;8.05;;;;;;;;;;5075946;28;20029;-77
2022/11/10 12:34:41;;;;;;;47.03;8.40;;;;;;;;;;5074410;28;20021;-77
2022/11/10 12:37:12;;;;;;;31.85;7.93;;;;;;;;;;5074807;28;20028;-76
2022/11/10 12:39:42;;;;;;;40.33;8.13;;;;;;;;;;5077103;28;20105;-78
2022/11/10 12:42:27;;;;;;;42.00;8.48;;;;;;;;;;5078452;28;20048;-80
2022/11/10 12:44:56;;;;;;;37.78;8.30;;;;;;;;;;5084211;28;20058;-78
2022/11/10 12:47:23;;;;;;;37.13;7.05;;;;;;;;;;5085272;28;20036;-76
2022/11/10 12:49:55;;;;;;;39.08;7.25;;;;;;;;;;5081992;28;20469;-78
2022/11/10 12:52:25;;;;;;;43.58;8.20;;;;;;;;;;5083122;28;20033;-78
2022/11/10 12:54:52;;;;;;;44.03;7.55;;;;;;;;;;5084115;28;20024;-78
2022/11/10 12:57:26;;;;;;;40.70;8.38;;;;;;;;;;5077358;28;20501;-78
2022/11/10 12:59:56;;;;;;;39.85;7.30;;;;;;;;;;5089684;28;20041;-78
2022/11/10 13:02:33;;;;;;;46.05;7.88;;;;;;;;;;5090417;28;20032;-77
2022/11/10 13:05:09;;;;;;;38.53;7.35;;;;;;;;;;5075344;28;20027;-78
2022/11/10 13:07:36;;;;;;;34.10;7.20;;;;;;;;;;5075077;28;20466;-78
2022/11/10 13:10:17;;;;;;;37.22;7.07;;;;;;;;;;5076874;28;20128;-78
2022/11/10 13:13:02;;;;;;;38.05;8.18;;;;;;;;;;5078388;28;20021;-77
2022/11/10 13:15:37;;;;;;;35.22;6.50;;;;;;;;;;5077454;28;20024;-78
2022/11/10 13:18:03;;;;;;;35.13;7.45;;;;;;;;;;5078342;28;20024;-78
2022/11/10 13:20:38;;;;;;;41.13;9.00;;;;;;;;;;5079602;28;20020;-77
2022/11/10 13:23:23;;;;;;;39.03;7.35;;;;;;;;;;5077924;28;20370;-75
2022/11/10 13:25:53;;;;;;;33.33;7.00;;;;;;;;;;5087794;28;20035;-79
2022/11/10 13:28:38;;;;;;;34.50;6.63;;;;;;;;;;5099275;22;20049;-72
2022/11/10 13:31:23;;;;;;;33.58;6.47;;;;;;;;;;5035509;28;20037;-73
2022/11/10 13:34:07;;;;;;;30.95;6.43;;;;;;;;;;5051995;28;20496;-72
2022/11/10 13:36:40;;;;;;;37.65;6.75;;;;;;;;;;5055327;28;20025;-72
2022/11/10 13:39:19;;;;;;;30.77;5.80;;;;;;;;;;5057456;28;20057;-72
2022/11/10 13:41:46;;;;;;;31.35;6.45;;;;;;;;;;5059932;28;20021;-73
2022/11/10 13:44:24;;;;;;;31.42;7.20;;;;;;;;;;5055976;28;20025;-73
2022/11/10 13:47:05;;;;;;;42.80;6.53;;;;;;;;;;5056230;28;20033;-74
2022/11/10 13:49:34;;;;;;;40.50;6.35;;;;;;;;;;5055432;28;20029;-73
2022/11/10 13:52:10;;;;;;;27.20;6.22;;;;;;;;;;5039721;28;20032;-72
2022/11/10 13:54:40;;;;;;;33.45;5.95;;;;;;;;;;5058812;28;20421;-74
2022/11/10 13:57:21;;;;;;;27.02;5.25;;;;;;;;;;5059935;28;20049;-74
2022/11/10 13:59:51;;;;;;;40.05;6.13;;;;;;;;;;5042097;28;20041;-72
2022/11/10 14:02:39;;;;;;;33.08;5.50;;;;;;;;;;5061137;28;20094;-71
2022/11/10 14:05:07;;;;;;;38.15;6.32;;;;;;;;;;5059288;28;20037;-72
2022/11/10 14:07:38;;;;;;;27.27;4.72;;;;;;;;;;5061639;28;20073;-72
2022/11/10 14:10:07;;;;;;;29.27;6.10;;;;;;;;;;5061871;28;20021;-72
2022/11/10 14:12:34;;;;;;;28.50;5.32;;;;;;;;;;5065921;28;20470;-73
2022/11/10 14:15:04;;;;;;;33.70;6.03;;;;;;;;;;5063052;28;20081;-72
2022/11/10 14:17:31;;;;;;;30.90;4.68;;;;;;;;;;5057697;28;20087;-72
2022/11/10 14:19:58;;;;;;;36.95;5.90;;;;;;;;;;5057603;28;20095;-72
2022/11/10 14:22:38;;;;;;;38.53;6.20;;;;;;;;;;5057365;28;20025;-72
2022/11/10 14:25:04;;;;;;;31.38;5.05;;;;;;;;;;5038382;28;20040;-72
2022/11/10 14:27:35;;;;;;;35.85;5.63;;;;;;;;;;5056810;28;20024;-72
2022/11/10 14:30:06;;;;;;;48.13;5.63;;;;;;;;;;5054701;28;20397;-75
2022/11/10 14:32:32;;;;;;;26.70;4.43;;;;;;;;;;5054324;28;20021;-73
2022/11/10 14:34:58;;;;;;;27.88;5.03;;;;;;;;;;5036809;28;20474;-72
2022/11/10 14:37:26;;;;;;;39.45;5.38;;;;;;;;;;5055189;28;20072;-73
2022/11/10 14:39:54;;;;;;;34.78;4.53;;;;;;;;;;5054362;28;20074;-72
2022/11/10 14:42:22;;;;;;;23.00;4.72;;;;;;;;;;5054821;28;20036;-73
2022/11/10 14:44:47;;;;;;;28.23;5.28;;;;;;;;;;5039387;28;20053;-73